Wausau, WI

12:21 PM CST on February 21, 2017 (GMT -0600)
NorthWest Wausau, near NTC | | Change Station
Active Advisory: Flood Warning Active Notice: Public Information Statement

Elev 1230 ft 44.98 °N, 89.65 °W | Updated 2 seconds ago

Clear
Clear
48.2 °F
Feels Like 48 °F
N
2.5
Wind Variable Wind from SE
Gusts 4.9 mph

Today
High -- | Low -- °F
--% Chance of Precip.
Yesterday
High -- | Low -- °F
Precip. -- in
Pressure 29.92 in
Visibility 10.0 miles
Clouds Clear
Windchill 48 °F
Dew Point 38 °F
Humidity 67%
Rainfall 0.00 in
Snow Depth Not available.
6:49 AM 5:35 PM
Waning Crescent, 23% visible
METAR KAUW 211754Z AUTO 21004KT 10SM CLR 08/03 A2989 RMK AO2 SLP131 T00780033 10078 20028 53003
Pressure 29.92 in
Visibility 10.0 miles
Clouds Clear
Windchill 48 °F
Dew Point 38 °F
Humidity 67%
Rainfall 0.00 in
Snow Depth Not available.
6:49 AM 5:35 PM
Waning Crescent, 23% visible
METAR KAUW 211754Z AUTO 21004KT 10SM CLR 08/03 A2989 RMK AO2 SLP131 T00780033 10078 20028 53003

Get Your Daily Forecast Email!

Thanks for signing up!

Be on the lookout for a verification email in your inbox.

You'll start receiving the daily forecast at 8 AM.

×

10-Day Weather Forecast

Almanac

Astronomy

Feb. 21, 2017 Rise Set
Actual Time
Civil Twilight
Nautical Twilight
Astronomical Twilight
Moon
Length of Visible Light
Length of Day
Tomorrow will be .
, % of the Moon is Illuminated

Today's Extremes

State Highs State Lows

Community

WunderPhotos

Upload Photos

1,962,540 photos uploaded!

WunderBlog® & News

Nearby

Air Quality

  Air Quality AQ Index Pollutant
Not available.

Snow Depth

Station Depth Elevation

Earthquake Activity

City Distance Mag. Time & Date
Minimum magnitude displayed is 2.5.

Coastal Water Temperatures

Place Temperature

Stations

Nearby Weather Stations

Station Location Temp. Windchill Dew Point Humidity Wind Precip. Elev Updated Type
                   

Watches & Warnings

Flood Warning
Issued: 11:01 AM CST Feb. 21, 2017 – National Weather Service

The Flood Warning continues for
the big Eau Pleine river near Stratford.
* At 10:00 am Tuesday the stage was 16.2 feet.
* Flood stage is 15.5 feet.
* At 15.5 feet... flooding affects mainly agricultural land. Some
cottages may be affected by water on the western end of the Big Eau
Pleine Reservoir... or about 5 miles downstream of the gage on
Highway 97.


Lat... Lon 4503 9021 4487 9003 4477 8973 4470 8972
      4478 9021 4495 9031




1059 am CST Tue Feb 21 2017

The Flood Warning continues for
the big rib river at Rib Falls.
* At 9:15 am Tuesday the stage was 10.2 feet.
* Flood stage is 10.0 feet.
* At 10.0 feet... flooding affects are mainly lowland areas downstream
of Rib Falls toward Marathon City.


Lat... Lon 4512 9004 4512 8995 4498 8984 4495 8963
      4491 8965 4491 8993